Time;durP1;ratioP1;P1;durP2;ratioP2;P2;SDS_P1;SDS_P2;PMS_P1;PMS_P2;Temp;Humidity;BMP_temperature;BMP_pressure;BME280_temperature;BME280_humidity;BME280_pressure;Samples;Min_cycle;Max_cycle;Signal;HPM_P1;HPM_P2
2023/08/14 04:02:38;;;;;;;2.97;2.77;;;15.90;99.90;;;;;;4903457;29;20916;-72
2023/08/14 04:05:05;;;;;;;2.47;2.37;;;15.90;99.90;;;;;;4910384;29;20576;-73
2023/08/14 04:07:32;;;;;;;2.10;2.10;;;15.90;99.90;;;;;;4917779;29;20844;-72
2023/08/14 04:09:59;;;;;;;2.40;2.30;;;15.80;99.90;;;;;;4918155;29;20470;-72
2023/08/14 04:12:25;;;;;;;3.07;2.93;;;15.80;99.90;;;;;;4915845;29;20506;-72
2023/08/14 04:14:52;;;;;;;2.50;2.43;;;15.80;99.90;;;;;;4934976;23;20498;-71
2023/08/14 04:17:19;;;;;;;2.67;2.57;;;15.80;99.90;;;;;;4915997;29;20501;-71
2023/08/14 04:19:47;;;;;;;1.77;1.77;;;15.90;99.90;;;;;;4916651;29;20840;-71
2023/08/14 04:22:14;;;;;;;3.13;2.23;;;15.90;99.90;;;;;;4910051;29;20569;-71
2023/08/14 04:24:41;;;;;;;3.43;2.67;;;15.90;99.90;;;;;;4911916;29;20558;-72
2023/08/14 04:27:08;;;;;;;3.40;3.10;;;15.90;99.90;;;;;;4917198;29;20492;-76
2023/08/14 04:29:35;;;;;;;2.27;2.17;;;15.90;99.90;;;;;;4917115;29;20538;-70
2023/08/14 04:32:08;;;;;;;2.80;2.53;;;16.00;99.90;;;;;;4909669;29;20506;-71
2023/08/14 04:34:34;;;;;;;2.37;2.30;;;16.00;99.90;;;;;;4907270;29;20475;-71
2023/08/14 04:37:19;;;;;;;3.30;3.20;;;16.00;99.90;;;;;;4915979;29;20532;-71
2023/08/14 04:39:46;;;;;;;2.83;2.63;;;16.00;99.90;;;;;;4913863;29;20462;-70
2023/08/14 04:42:13;;;;;;;2.63;2.53;;;16.10;99.90;;;;;;4903108;29;20478;-70
2023/08/14 04:44:40;;;;;;;2.43;2.23;;;16.10;99.90;;;;;;4913451;29;20538;-69
2023/08/14 04:47:07;;;;;;;2.60;2.50;;;16.20;99.90;;;;;;4912064;29;20552;-69
2023/08/14 04:49:33;;;;;;;3.83;3.63;;;16.60;99.90;;;;;;4916305;29;20479;-70
2023/08/14 04:52:02;;;;;;;4.40;4.10;;;17.10;99.90;;;;;;4915600;29;20490;-72
2023/08/14 04:54:31;;;;;;;4.43;3.90;;;17.60;99.90;;;;;;4903907;29;20493;-70
2023/08/14 04:56:58;;;;;;;2.87;2.77;;;18.10;99.90;;;;;;4899161;29;20491;-70
2023/08/14 04:59:25;;;;;;;2.33;2.23;;;18.40;99.90;;;;;;4916043;29;20825;-70
2023/08/14 05:01:52;;;;;;;2.17;2.07;;;18.90;99.90;;;;;;4898397;29;20481;-71
2023/08/14 05:04:23;;;;;;;2.17;2.10;;;19.20;99.90;;;;;;4898344;29;20517;-69
2023/08/14 05:06:50;;;;;;;3.07;1.63;;;19.10;99.90;;;;;;4909369;29;20562;-71
2023/08/14 05:09:16;;;;;;;2.47;2.37;;;18.80;99.90;;;;;;4911949;29;20493;-70
2023/08/14 05:11:44;;;;;;;3.87;2.60;;;18.60;99.90;;;;;;4914011;29;20461;-71
2023/08/14 05:14:14;;;;;;;2.23;2.23;;;18.40;99.90;;;;;;4902898;29;20564;-70
2023/08/14 05:16:42;;;;;;;2.13;2.03;;;18.20;99.90;;;;;;4910425;29;20997;-71
2023/08/14 05:19:09;;;;;;;2.53;2.33;;;18.10;99.90;;;;;;4901574;29;20975;-71
2023/08/14 05:21:37;;;;;;;3.03;2.90;;;18.00;99.90;;;;;;4916119;29;20462;-70
2023/08/14 05:24:04;;;;;;;5.00;2.37;;;17.90;99.90;;;;;;4916168;29;20975;-71
2023/08/14 05:26:31;;;;;;;2.17;2.10;;;17.80;99.90;;;;;;4915370;29;20467;-70
2023/08/14 05:28:59;;;;;;;3.10;2.87;;;17.80;99.90;;;;;;4908940;29;20527;-70
2023/08/14 05:31:26;;;;;;;2.20;2.13;;;17.80;99.90;;;;;;4910872;29;20929;-70
2023/08/14 05:33:53;;;;;;;2.70;2.23;;;17.70;99.90;;;;;;4914150;29;20471;-71
2023/08/14 05:36:22;;;;;;;2.73;2.63;;;17.70;99.90;;;;;;4915841;29;20498;-70
2023/08/14 05:38:49;;;;;;;4.60;4.20;;;17.70;99.90;;;;;;4915982;29;20830;-70
2023/08/14 05:41:16;;;;;;;2.57;2.50;;;17.70;99.90;;;;;;4913374;29;20479;-71
2023/08/14 05:43:43;;;;;;;3.00;2.87;;;17.70;99.90;;;;;;4909768;29;20509;-70
2023/08/14 05:46:11;;;;;;;2.90;2.70;;;17.70;99.90;;;;;;4916564;29;20465;-71
2023/08/14 05:48:38;;;;;;;2.73;2.63;;;17.70;99.90;;;;;;4916578;29;20577;-71
2023/08/14 05:51:05;;;;;;;2.00;1.90;;;17.80;99.90;;;;;;4917440;29;20499;-70
2023/08/14 05:53:32;;;;;;;2.93;2.83;;;17.80;99.90;;;;;;4902592;29;20499;-70
2023/08/14 05:55:58;;;;;;;2.77;2.57;;;17.80;99.90;;;;;;4901382;29;20525;-70
2023/08/14 05:58:25;;;;;;;2.47;2.37;;;17.80;99.90;;;;;;4916899;29;20981;-70
2023/08/14 06:00:52;;;;;;;2.70;2.60;;;17.90;99.90;;;;;;4910352;29;20475;-70
2023/08/14 06:03:20;;;;;;;2.80;2.70;;;17.90;99.90;;;;;;4912508;29;20504;-70
2023/08/14 06:05:47;;;;;;;2.93;2.83;;;18.00;99.90;;;;;;4904641;29;20474;-70
2023/08/14 06:08:14;;;;;;;4.13;2.40;;;18.10;99.90;;;;;;4909815;29;20527;-70
2023/08/14 06:10:40;;;;;;;3.20;3.10;;;18.20;99.90;;;;;;4917669;29;20459;-70
2023/08/14 06:13:08;;;;;;;3.20;3.00;;;18.80;99.90;;;;;;4897237;29;20963;-71
2023/08/14 06:15:35;;;;;;;1.83;1.83;;;19.50;99.90;;;;;;4914647;29;20531;-70
2023/08/14 06:18:02;;;;;;;1.70;1.70;;;19.80;99.90;;;;;;4915694;29;20519;-70
2023/08/14 06:20:30;;;;;;;2.30;2.30;;;19.90;99.90;;;;;;4907707;29;21004;-71
2023/08/14 06:22:57;;;;;;;2.20;2.10;;;19.90;99.90;;;;;;4908852;29;21029;-70
2023/08/14 06:25:28;;;;;;;2.30;2.30;;;19.90;99.90;;;;;;4906222;29;20558;-70
2023/08/14 06:27:55;;;;;;;1.77;1.77;;;20.00;99.90;;;;;;4907249;29;20543;-70
2023/08/14 06:30:22;;;;;;;3.80;1.97;;;20.10;99.90;;;;;;4906546;29;20462;-70
2023/08/14 06:32:49;;;;;;;2.43;2.40;;;20.10;99.90;;;;;;4913237;29;20878;-70
2023/08/14 06:35:16;;;;;;;2.50;2.50;;;20.20;99.90;;;;;;4897355;29;20843;-70
2023/08/14 06:37:52;;;;;;;2.87;2.70;;;20.40;99.90;;;;;;4907861;29;20501;-70
2023/08/14 06:40:27;;;;;;;1.87;1.87;;;21.10;99.90;;;;;;4910994;29;20473;-70
2023/08/14 06:42:57;;;;;;;2.03;1.93;;;22.20;99.90;;;;;;4916086;29;20470;-71
2023/08/14 06:45:39;;;;;;;2.40;2.27;;;23.30;99.90;;;;;;4903073;29;20477;-70
2023/08/14 06:48:07;;;;;;;3.90;2.07;;;23.60;99.90;;;;;;4905355;29;20566;-70
2023/08/14 06:50:34;;;;;;;1.63;1.63;;;24.00;99.90;;;;;;4911271;29;20470;-70
2023/08/14 06:53:06;;;;;;;1.83;1.83;;;24.10;99.90;;;;;;4916024;29;20463;-72
2023/08/14 06:55:38;;;;;;;1.60;1.60;;;24.60;99.90;;;;;;4909311;29;20650;-71
2023/08/14 06:58:13;;;;;;;1.23;1.23;;;25.40;99.90;;;;;;4914969;29;20486;-70
2023/08/14 07:00:40;;;;;;;1.80;1.70;;;25.80;99.90;;;;;;4910199;29;20470;-70
2023/08/14 07:03:10;;;;;;;2.03;1.93;;;25.30;99.90;;;;;;4914729;29;20460;-72
2023/08/14 07:05:48;;;;;;;2.53;2.00;;;24.70;99.90;;;;;;4908524;29;20848;-71
2023/08/14 07:08:19;;;;;;;1.70;1.70;;;24.50;99.90;;;;;;4915556;29;20478;-71
2023/08/14 07:10:48;;;;;;;1.93;1.83;;;24.30;99.90;;;;;;4915493;29;20502;-71
2023/08/14 07:13:19;;;;;;;1.70;1.70;;;24.20;99.90;;;;;;4915365;29;20946;-71
2023/08/14 07:15:51;;;;;;;2.00;1.90;;;24.20;99.90;;;;;;4911913;29;21262;-72
2023/08/14 07:18:23;;;;;;;1.60;1.60;;;23.90;99.90;;;;;;4907015;29;20497;-69
2023/08/14 07:20:50;;;;;;;3.00;2.20;;;23.70;99.90;;;;;;4900630;29;20475;-72
2023/08/14 07:23:23;;;;;;;1.83;1.83;;;23.90;99.90;;;;;;4905156;29;20558;-72
2023/08/14 07:25:50;;;;;;;2.33;2.13;;;24.00;99.90;;;;;;4914548;29;20469;-72
2023/08/14 07:28:20;;;;;;;2.37;2.27;;;24.00;99.90;;;;;;4915591;29;20841;-73
2023/08/14 07:30:55;;;;;;;2.27;2.17;;;24.00;99.90;;;;;;4898948;29;20573;-73
2023/08/14 07:33:28;;;;;;;2.40;2.30;;;24.20;99.90;;;;;;4913803;29;20900;-72
2023/08/14 07:35:56;;;;;;;2.63;2.43;;;24.30;99.90;;;;;;4918864;29;21015;-73
2023/08/14 07:38:33;;;;;;;2.00;1.90;;;24.60;99.90;;;;;;4905492;29;20496;-72
2023/08/14 07:41:08;;;;;;;3.17;2.80;;;24.70;99.90;;;;;;4900668;29;20891;-73
2023/08/14 07:43:34;;;;;;;2.10;2.00;;;24.90;99.90;;;;;;4908267;29;20466;-72
2023/08/14 07:46:07;;;;;;;1.87;1.87;;;25.00;99.90;;;;;;4916517;29;20467;-72
2023/08/14 07:48:37;;;;;;;2.20;2.10;;;24.90;99.90;;;;;;4913404;29;20484;-73
2023/08/14 07:51:08;;;;;;;1.57;1.57;;;24.90;99.90;;;;;;4911906;29;20565;-73
2023/08/14 07:53:38;;;;;;;1.90;1.90;;;24.90;99.90;;;;;;4918751;29;20461;-72
2023/08/14 07:56:11;;;;;;;1.97;1.90;;;24.90;99.90;;;;;;4913198;29;20471;-73
2023/08/14 07:58:45;;;;;;;1.60;1.60;;;24.90;99.90;;;;;;4918811;29;20511;-72
2023/08/14 08:01:13;;;;;;;2.80;2.00;;;24.90;99.90;;;;;;4916954;29;20459;-73
2023/08/14 08:03:40;;;;;;;1.90;1.90;;;24.80;99.90;;;;;;4910502;29;20977;-72
2023/08/14 08:06:08;;;;;;;2.10;2.10;;;24.70;99.90;;;;;;4915458;29;20479;-73
2023/08/14 08:08:42;;;;;;;2.20;2.20;;;24.90;99.90;;;;;;4918908;29;20546;-72
2023/08/14 08:11:09;;;;;;;2.10;2.00;;;25.00;99.90;;;;;;4909427;29;20570;-72
2023/08/14 08:13:43;;;;;;;1.80;1.80;;;25.00;99.90;;;;;;4915112;29;20471;-72
2023/08/14 08:16:13;;;;;;;1.73;1.63;;;25.00;99.90;;;;;;4911282;29;20478;-73
2023/08/14 08:18:47;;;;;;;1.50;1.50;;;25.10;99.90;;;;;;4905228;29;20736;-72
2023/08/14 08:21:22;;;;;;;2.27;2.07;;;25.20;99.90;;;;;;4898828;29;20527;-72
2023/08/14 08:23:53;;;;;;;1.73;1.63;;;25.40;99.90;;;;;;4912334;29;20475;-73
2023/08/14 08:26:24;;;;;;;2.07;1.97;;;25.40;99.90;;;;;;4902799;29;20480;-72
2023/08/14 08:28:51;;;;;;;1.50;1.50;;;25.40;99.90;;;;;;4913278;29;20496;-73
2023/08/14 08:31:20;;;;;;;2.30;1.70;;;25.30;99.90;;;;;;4903732;29;20484;-72
2023/08/14 08:33:50;;;;;;;1.80;1.80;;;25.30;99.90;;;;;;4915189;29;21105;-74
2023/08/14 08:36:20;;;;;;;1.70;1.53;;;25.20;99.90;;;;;;4912303;29;20579;-72
2023/08/14 08:38:48;;;;;;;2.07;1.97;;;25.20;99.90;;;;;;4905938;29;20511;-71
2023/08/14 08:41:34;;;;;;;1.90;1.80;;;25.10;99.90;;;;;;4909903;29;20546;-71
2023/08/14 08:44:07;;;;;;;2.27;2.00;;;25.10;99.90;;;;;;4916552;29;20962;-73
2023/08/14 08:46:36;;;;;;;1.50;1.50;;;25.20;99.90;;;;;;4915171;29;20471;-71
2023/08/14 08:49:08;;;;;;;1.73;1.63;;;25.30;99.90;;;;;;4901653;29;20548;-72
2023/08/14 08:51:35;;;;;;;1.20;1.20;;;25.30;99.90;;;;;;4906530;29;20464;-71
2023/08/14 08:54:02;;;;;;;1.67;1.60;;;25.30;99.90;;;;;;4914865;29;20844;-70
2023/08/14 08:56:31;;;;;;;1.43;1.43;;;25.40;99.90;;;;;;4899484;29;20867;-71
2023/08/14 08:59:05;;;;;;;1.40;1.40;;;25.50;99.90;;;;;;4897824;29;20514;-72
2023/08/14 09:01:32;;;;;;;4.23;1.57;;;25.40;99.90;;;;;;4901726;29;20975;-71
2023/08/14 09:03:59;;;;;;;2.63;1.87;;;25.50;99.90;;;;;;4901730;29;20477;-71
2023/08/14 09:06:27;;;;;;;1.57;1.47;;;25.40;99.90;;;;;;4911252;29;20461;-71
2023/08/14 09:08:57;;;;;;;1.90;1.87;;;25.40;99.90;;;;;;4907856;29;21064;-71
2023/08/14 09:11:27;;;;;;;1.60;1.50;;;25.50;99.90;;;;;;4898985;29;20504;-71
2023/08/14 09:13:58;;;;;;;1.47;1.47;;;25.40;99.90;;;;;;4913406;29;20499;-71
2023/08/14 09:16:27;;;;;;;1.47;1.47;;;25.40;99.90;;;;;;4905376;29;20478;-71
2023/08/14 09:18:57;;;;;;;1.67;1.67;;;25.50;99.90;;;;;;4925889;29;20833;-70
2023/08/14 09:21:28;;;;;;;1.43;1.40;;;25.70;99.90;;;;;;4906702;29;20470;-71
2023/08/14 09:23:55;;;;;;;1.60;1.57;;;25.70;99.90;;;;;;4904188;29;21004;-71
2023/08/14 09:26:25;;;;;;;1.43;1.43;;;25.80;99.90;;;;;;4906090;29;20477;-71
2023/08/14 09:28:54;;;;;;;3.43;1.90;;;25.90;99.90;;;;;;4914275;29;20540;-72
2023/08/14 09:31:22;;;;;;;1.63;1.53;;;26.10;99.90;;;;;;4912731;29;20461;-72
2023/08/14 09:33:49;;;;;;;1.37;1.37;;;26.20;99.90;;;;;;4914420;29;20558;-71
2023/08/14 09:36:16;;;;;;;3.20;1.37;;;26.40;99.90;;;;;;4910848;29;20998;-71
2023/08/14 09:38:43;;;;;;;1.70;1.60;;;26.40;99.90;;;;;;4915995;29;20545;-70
2023/08/14 09:41:13;;;;;;;1.63;1.63;;;26.30;99.90;;;;;;4909592;29;20475;-70
2023/08/14 09:43:40;;;;;;;1.53;1.40;;;26.30;99.90;;;;;;4913788;29;20853;-70
2023/08/14 09:46:11;;;;;;;1.20;1.20;;;26.20;99.90;;;;;;4912495;29;21009;-72
2023/08/14 09:48:42;;;;;;;1.10;1.10;;;26.30;99.90;;;;;;4915412;29;20470;-71
2023/08/14 09:51:13;;;;;;;1.13;1.13;;;26.40;99.90;;;;;;4915382;29;20463;-71
2023/08/14 09:53:52;;;;;;;1.30;1.30;;;26.60;99.90;;;;;;4902766;29;20478;-71
2023/08/14 09:56:22;;;;;;;1.03;1.03;;;26.70;99.90;;;;;;4910693;29;20951;-71
2023/08/14 09:58:50;;;;;;;1.33;1.33;;;26.90;99.90;;;;;;4912306;29;20505;-71
2023/08/14 10:01:19;;;;;;;2.00;1.43;;;26.90;99.90;;;;;;4908633;29;20471;-71
2023/08/14 10:03:49;;;;;;;1.33;1.33;;;26.90;99.90;;;;;;4897516;29;20467;-73
2023/08/14 10:06:24;;;;;;;1.47;1.47;;;26.90;99.90;;;;;;4908259;29;20478;-72
2023/08/14 10:08:57;;;;;;;1.00;1.00;;;26.80;99.90;;;;;;4899043;29;20550;-72
2023/08/14 10:11:28;;;;;;;0.80;0.80;;;26.70;99.90;;;;;;4910195;29;20469;-72
2023/08/14 10:13:58;;;;;;;1.10;1.10;;;26.50;99.90;;;;;;4908552;29;20569;-73
2023/08/14 10:16:32;;;;;;;1.10;1.10;;;26.40;99.90;;;;;;4905130;29;20642;-72
2023/08/14 10:19:04;;;;;;;1.60;1.60;;;26.50;99.90;;;;;;4909640;29;20497;-73
2023/08/14 10:21:34;;;;;;;1.50;1.40;;;26.60;99.90;;;;;;4911060;29;20475;-72
2023/08/14 10:24:02;;;;;;;1.43;1.43;;;26.70;99.90;;;;;;4903407;29;20483;-73
2023/08/14 10:26:36;;;;;;;1.83;1.77;;;26.70;99.90;;;;;;4902479;29;20472;-72
2023/08/14 10:29:04;;;;;;;1.00;1.00;;;26.80;99.90;;;;;;4896987;29;20957;-72
2023/08/14 10:31:32;;;;;;;1.37;1.37;;;26.90;99.90;;;;;;4913352;29;20552;-72
2023/08/14 10:34:03;;;;;;;1.13;1.13;;;26.90;99.90;;;;;;4915381;29;20476;-72
2023/08/14 10:36:30;;;;;;;1.20;1.20;;;26.90;99.90;;;;;;4910733;29;20473;-72
2023/08/14 10:39:07;;;;;;;1.50;1.50;;;26.80;99.90;;;;;;4913121;29;20490;-71
2023/08/14 10:41:34;;;;;;;2.77;1.30;;;26.70;99.90;;;;;;4902595;29;21024;-71
2023/08/14 10:44:06;;;;;;;1.30;1.30;;;26.70;99.90;;;;;;4896829;29;20541;-71
2023/08/14 10:46:36;;;;;;;1.10;1.10;;;26.60;99.90;;;;;;4906167;29;20836;-71
2023/08/14 10:49:03;;;;;;;1.40;1.40;;;26.50;99.90;;;;;;4910172;29;20494;-71
2023/08/14 10:51:32;;;;;;;1.27;1.27;;;26.50;99.90;;;;;;4906771;29;20470;-71
2023/08/14 10:54:08;;;;;;;1.50;1.40;;;26.50;99.90;;;;;;4914868;29;20462;-70
2023/08/14 10:56:43;;;;;;;3.83;1.60;;;26.50;99.90;;;;;;4908126;29;20560;-71
2023/08/14 10:59:20;;;;;;;1.10;1.10;;;26.60;99.90;;;;;;4917330;29;20518;-70
2023/08/14 11:01:52;;;;;;;1.70;1.60;;;26.80;99.90;;;;;;4910275;29;20465;-73
2023/08/14 11:04:19;;;;;;;1.23;1.17;;;26.90;99.90;;;;;;4896323;29;20486;-73
2023/08/14 11:07:08;;;;;;;1.43;1.43;;;27.10;99.90;;;;;;4908369;29;20829;-72
2023/08/14 11:09:36;;;;;;;1.30;1.27;;;27.20;99.90;;;;;;4904108;29;20493;-72
2023/08/14 11:12:05;;;;;;;1.10;1.10;;;27.40;99.90;;;;;;4917068;29;20466;-72
2023/08/14 11:14:34;;;;;;;1.30;1.30;;;27.50;99.90;;;;;;4913904;29;20829;-71
2023/08/14 11:17:03;;;;;;;1.53;1.53;;;27.30;99.90;;;;;;4912396;29;20965;-71
2023/08/14 11:19:29;;;;;;;1.23;1.23;;;27.20;99.90;;;;;;4912879;29;20503;-70
2023/08/14 11:21:56;;;;;;;1.30;1.20;;;26.90;99.90;;;;;;4912330;29;20475;-71
2023/08/14 11:24:23;;;;;;;1.60;1.60;;;26.90;99.90;;;;;;4909288;29;20539;-71
2023/08/14 11:26:50;;;;;;;1.90;1.90;;;26.80;99.90;;;;;;4911217;29;20480;-70
2023/08/14 11:29:17;;;;;;;1.50;1.40;;;26.70;99.90;;;;;;4917904;29;20881;-71
2023/08/14 11:31:44;;;;;;;1.10;1.10;;;26.40;99.90;;;;;;4902507;29;20467;-70
2023/08/14 11:34:13;;;;;;;1.50;1.50;;;26.30;99.90;;;;;;4911523;29;20934;-71
2023/08/14 11:36:41;;;;;;;1.50;1.50;;;26.40;99.90;;;;;;4911190;29;20486;-71
2023/08/14 11:39:08;;;;;;;1.77;1.67;;;26.50;99.90;;;;;;4909355;29;20555;-71
2023/08/14 11:41:35;;;;;;;2.17;2.10;;;26.60;99.90;;;;;;4913378;29;20472;-71
2023/08/14 11:44:03;;;;;;;1.10;1.10;;;26.70;99.90;;;;;;4907343;29;20465;-71
2023/08/14 11:46:30;;;;;;;2.40;1.63;;;26.80;99.90;;;;;;4914046;29;20484;-70
2023/08/14 11:48:56;;;;;;;1.50;1.40;;;26.90;99.90;;;;;;4917131;29;20503;-70
2023/08/14 11:51:25;;;;;;;1.70;1.70;;;27.00;99.90;;;;;;4911522;29;20474;-70
2023/08/14 11:53:51;;;;;;;1.60;1.60;;;27.20;99.90;;;;;;4916547;29;20521;-70
2023/08/14 11:56:18;;;;;;;1.73;1.63;;;27.20;99.90;;;;;;4902910;29;20484;-71
2023/08/14 11:58:46;;;;;;;1.47;1.37;;;27.30;99.90;;;;;;4915313;29;20497;-71
2023/08/14 12:01:13;;;;;;;1.90;1.50;;;27.30;99.90;;;;;;4903231;29;20606;-71
2023/08/14 12:03:41;;;;;;;1.40;1.40;;;27.40;99.90;;;;;;4915757;29;20467;-70
2023/08/14 12:06:07;;;;;;;1.33;1.33;;;27.40;99.90;;;;;;4911993;29;20899;-71
2023/08/14 12:08:36;;;;;;;1.40;1.40;;;27.50;99.90;;;;;;4908723;29;20499;-70
2023/08/14 12:11:02;;;;;;;1.97;1.87;;;27.50;99.90;;;;;;4917432;29;20466;-70
2023/08/14 12:13:33;;;;;;;1.27;1.27;;;27.50;99.90;;;;;;4912074;29;20483;-71
2023/08/14 12:16:06;;;;;;;1.40;1.40;;;27.60;99.90;;;;;;4897335;29;20471;-70
2023/08/14 12:18:32;;;;;;;1.60;1.60;;;27.60;99.90;;;;;;4908284;29;20497;-70
2023/08/14 12:20:59;;;;;;;1.50;1.50;;;27.40;99.90;;;;;;4900082;29;20479;-71
2023/08/14 12:23:29;;;;;;;1.57;1.47;;;27.30;99.90;;;;;;4907681;29;20472;-71
2023/08/14 12:25:58;;;;;;;1.50;1.40;;;27.30;99.90;;;;;;4914842;29;20480;-71
2023/08/14 12:28:24;;;;;;;1.50;1.40;;;27.40;99.90;;;;;;4909262;29;20817;-71
2023/08/14 12:30:51;;;;;;;1.17;1.13;;;27.60;99.90;;;;;;4910560;23;20542;-67
2023/08/14 12:33:18;;;;;;;1.57;1.57;;;27.80;99.90;;;;;;4914831;29;21021;-67
2023/08/14 12:35:45;;;;;;;1.57;1.57;;;27.90;99.90;;;;;;4917225;29;20462;-67
2023/08/14 12:38:11;;;;;;;1.50;1.50;;;27.70;99.90;;;;;;4911884;29;20493;-67
2023/08/14 12:40:39;;;;;;;1.13;1.13;;;27.70;99.90;;;;;;4913375;29;21027;-67
2023/08/14 12:43:07;;;;;;;1.13;1.13;;;27.70;99.90;;;;;;4897271;29;20466;-67
2023/08/14 12:45:34;;;;;;;1.70;1.70;;;27.70;99.90;;;;;;4897539;29;20482;-67
2023/08/14 12:48:01;;;;;;;1.63;1.53;;;27.50;99.90;;;;;;4905695;29;20485;-67
2023/08/14 12:50:27;;;;;;;1.60;1.50;;;27.40;99.90;;;;;;4904398;29;20488;-68
2023/08/14 12:52:54;;;;;;;1.33;1.33;;;27.40;99.90;;;;;;4906934;29;20472;-67
2023/08/14 12:55:21;;;;;;;2.67;1.50;;;27.60;99.90;;;;;;4906544;29;20466;-66
2023/08/14 12:57:47;;;;;;;2.20;2.00;;;27.70;99.90;;;;;;4898526;29;20472;-67
2023/08/14 13:00:16;;;;;;;1.27;1.27;;;27.60;99.90;;;;;;4898674;29;20497;-67
2023/08/14 13:02:43;;;;;;;1.97;1.87;;;27.60;99.90;;;;;;4897609;29;20478;-67
2023/08/14 13:05:09;;;;;;;1.30;1.30;;;27.50;99.90;;;;;;4898369;29;20485;-66
2023/08/14 13:07:36;;;;;;;1.27;1.27;;;27.50;99.90;;;;;;4904436;29;20517;-66
2023/08/14 13:10:04;;;;;;;1.40;1.40;;;27.50;99.90;;;;;;4898283;29;20461;-67
2023/08/14 13:12:30;;;;;;;1.33;1.33;;;27.50;99.90;;;;;;4897362;29;20583;-67
2023/08/14 13:14:57;;;;;;;1.67;1.67;;;27.70;99.90;;;;;;4904959;29;21007;-67
2023/08/14 13:17:25;;;;;;;2.90;1.50;;;27.70;99.90;;;;;;4905949;29;20469;-66
2023/08/14 13:19:53;;;;;;;1.40;1.40;;;27.60;99.90;;;;;;4897977;29;20499;-66
2023/08/14 13:22:19;;;;;;;3.93;1.90;;;27.50;99.90;;;;;;4892798;29;20828;-66
2023/08/14 13:24:46;;;;;;;2.33;2.23;;;27.60;99.90;;;;;;4916687;29;20461;-68
2023/08/14 13:27:13;;;;;;;1.50;1.50;;;27.60;99.90;;;;;;4916896;29;20470;-68
2023/08/14 13:29:39;;;;;;;1.80;1.70;;;27.70;99.90;;;;;;4916409;29;20468;-68
2023/08/14 13:32:06;;;;;;;1.97;1.90;;;27.70;99.90;;;;;;4908843;29;20503;-68
2023/08/14 13:34:34;;;;;;;1.83;1.83;;;27.80;99.90;;;;;;4908534;29;20469;-68
2023/08/14 13:37:01;;;;;;;1.60;1.60;;;27.80;99.90;;;;;;4916903;29;20477;-68
2023/08/14 13:39:28;;;;;;;1.17;1.17;;;27.90;99.90;;;;;;4903416;29;20501;-68
2023/08/14 13:41:54;;;;;;;1.40;1.40;;;28.10;99.90;;;;;;4896980;29;20502;-67
2023/08/14 13:44:21;;;;;;;2.50;1.67;;;28.20;99.90;;;;;;4904353;29;20466;-68
2023/08/14 13:46:48;;;;;;;1.63;1.60;;;28.10;99.90;;;;;;4916837;29;20454;-68
2023/08/14 13:49:15;;;;;;;1.43;1.40;;;28.10;99.90;;;;;;4916888;29;20462;-68
2023/08/14 13:51:44;;;;;;;1.57;1.50;;;27.90;99.90;;;;;;4914281;29;20489;-68
2023/08/14 13:54:11;;;;;;;1.20;1.20;;;27.80;99.90;;;;;;4903280;29;21047;-68
2023/08/14 13:56:37;;;;;;;1.60;1.60;;;27.80;99.90;;;;;;4895478;29;20841;-68
2023/08/14 13:59:04;;;;;;;1.60;1.60;;;27.80;99.90;;;;;;4911988;29;20517;-68
2023/08/14 14:01:31;;;;;;;1.20;1.20;;;27.80;99.90;;;;;;4898289;29;20486;-68
2023/08/14 14:03:57;;;;;;;1.90;1.80;;;27.80;99.90;;;;;;4893529;29;20496;-68
2023/08/14 14:06:24;;;;;;;1.47;1.37;;;27.90;99.90;;;;;;4907533;29;20510;-68
2023/08/14 14:08:52;;;;;;;1.57;1.57;;;28.00;99.90;;;;;;4899085;29;21120;-72
2023/08/14 14:11:19;;;;;;;1.87;1.87;;;28.00;99.90;;;;;;4908339;29;20847;-67
2023/08/14 14:13:46;;;;;;;1.50;1.50;;;28.00;99.90;;;;;;4913212;29;20561;-66
2023/08/14 14:16:12;;;;;;;1.30;1.30;;;28.00;99.90;;;;;;4898879;29;20475;-68
2023/08/14 14:18:39;;;;;;;2.03;1.93;;;28.00;99.90;;;;;;4898642;29;21016;-68
2023/08/14 14:21:06;;;;;;;1.60;1.60;;;27.90;99.90;;;;;;4898905;29;20497;-68
2023/08/14 14:23:32;;;;;;;2.10;2.00;;;27.80;99.90;;;;;;4915888;29;20472;-68
2023/08/14 14:26:00;;;;;;;2.73;1.70;;;27.90;99.90;;;;;;4911237;29;20837;-68
2023/08/14 14:28:27;;;;;;;1.77;1.73;;;28.00;99.90;;;;;;4895933;29;20847;-68
2023/08/14 14:30:54;;;;;;;2.40;2.30;;;27.90;99.90;;;;;;4909217;29;20494;-68
2023/08/14 14:33:20;;;;;;;1.60;1.60;;;27.80;99.90;;;;;;4900076;29;20485;-67
2023/08/14 14:35:47;;;;;;;1.33;1.33;;;27.80;99.90;;;;;;4906174;29;20483;-68
2023/08/14 14:38:14;;;;;;;1.83;1.77;;;27.70;99.90;;;;;;4903026;29;20466;-68
2023/08/14 14:40:40;;;;;;;1.73;1.63;;;27.70;99.90;;;;;;4898172;29;20490;-68
2023/08/14 14:43:08;;;;;;;1.50;1.50;;;27.80;99.90;;;;;;4896747;29;20471;-68
2023/08/14 14:45:35;;;;;;;2.03;1.80;;;27.90;99.90;;;;;;4895722;29;20468;-68
2023/08/14 14:48:02;;;;;;;3.40;1.63;;;28.00;99.90;;;;;;4893966;29;20485;-68
2023/08/14 14:50:28;;;;;;;2.00;1.70;;;28.10;99.90;;;;;;4895994;29;20492;-68
2023/08/14 14:52:55;;;;;;;1.87;1.83;;;28.30;99.90;;;;;;4897064;29;20472;-68
2023/08/14 14:55:22;;;;;;;1.20;1.13;;;28.40;99.90;;;;;;4896420;29;20471;-68
2023/08/14 14:57:48;;;;;;;3.97;1.90;;;28.30;99.90;;;;;;4903458;29;20508;-67
2023/08/14 15:00:17;;;;;;;1.60;1.60;;;28.20;99.90;;;;;;4903075;29;20879;-67
2023/08/14 15:02:44;;;;;;;1.83;1.73;;;28.20;99.90;;;;;;4895692;29;20531;-67
2023/08/14 15:05:11;;;;;;;1.60;1.60;;;28.10;99.90;;;;;;4896925;29;20476;-67
2023/08/14 15:07:38;;;;;;;2.53;2.37;;;27.90;99.90;;;;;;4904638;29;21061;-67
2023/08/14 15:10:05;;;;;;;1.67;1.67;;;27.90;99.90;;;;;;4903389;29;20471;-67
2023/08/14 15:12:32;;;;;;;1.80;1.70;;;28.00;99.90;;;;;;4890248;29;20498;-67
2023/08/14 15:14:58;;;;;;;2.57;1.70;;;28.00;99.90;;;;;;4904408;29;20461;-67
2023/08/14 15:17:26;;;;;;;1.87;1.87;;;28.00;99.90;;;;;;4902207;29;21034;-67
2023/08/14 15:19:53;;;;;;;1.67;1.67;;;28.00;99.90;;;;;;4896630;29;20487;-67
2023/08/14 15:22:20;;;;;;;1.57;1.47;;;28.00;99.90;;;;;;4896481;29;23724;-67
2023/08/14 15:24:46;;;;;;;2.10;2.00;;;27.80;99.90;;;;;;4896335;29;20470;-68
2023/08/14 15:27:13;;;;;;;1.50;1.50;;;27.80;99.90;;;;;;4905043;29;20475;-68
2023/08/14 15:29:40;;;;;;;1.90;1.70;;;27.80;99.90;;;;;;4896016;29;20511;-68
2023/08/14 15:32:06;;;;;;;1.60;1.60;;;27.70;99.90;;;;;;4896125;29;20501;-68
2023/08/14 15:34:34;;;;;;;1.63;1.57;;;27.50;99.90;;;;;;4894677;29;20478;-68
2023/08/14 15:37:01;;;;;;;1.60;1.60;;;27.40;99.90;;;;;;4900484;29;20481;-68
2023/08/14 15:39:29;;;;;;;1.93;1.93;;;27.40;99.90;;;;;;4907841;29;20496;-68
2023/08/14 15:41:56;;;;;;;1.50;1.50;;;27.50;99.90;;;;;;4896031;29;20541;-68
2023/08/14 15:44:22;;;;;;;1.70;1.70;;;27.60;99.90;;;;;;4902507;29;20473;-68
2023/08/14 15:46:49;;;;;;;1.53;1.53;;;27.70;99.90;;;;;;4897007;29;20475;-69
2023/08/14 15:49:16;;;;;;;1.70;1.70;;;27.60;99.90;;;;;;4896838;29;20469;-68
2023/08/14 15:51:44;;;;;;;1.90;1.80;;;27.60;99.90;;;;;;4916892;29;20486;-67
2023/08/14 15:54:11;;;;;;;2.13;2.13;;;27.60;99.90;;;;;;4905825;29;20521;-67
2023/08/14 15:56:37;;;;;;;2.17;2.07;;;27.50;99.90;;;;;;4899455;29;20469;-67
2023/08/14 15:59:04;;;;;;;2.07;1.97;;;27.50;99.90;;;;;;4904356;29;20474;-67
2023/08/14 16:01:32;;;;;;;1.87;1.77;;;27.40;99.90;;;;;;4896754;29;20498;-67
2023/08/14 16:03:59;;;;;;;1.63;1.63;;;27.30;99.90;;;;;;4909277;29;20538;-67
2023/08/14 16:06:26;;;;;;;1.60;1.60;;;27.20;99.90;;;;;;4891484;29;20806;-68
2023/08/14 16:08:54;;;;;;;1.47;1.47;;;27.20;99.90;;;;;;4908067;29;20471;-67
2023/08/14 16:11:21;;;;;;;1.90;1.90;;;27.10;99.90;;;;;;4900383;29;20493;-67
2023/08/14 16:13:48;;;;;;;2.10;2.10;;;27.10;99.90;;;;;;4906575;29;20476;-67
2023/08/14 16:16:14;;;;;;;2.27;2.17;;;27.20;99.90;;;;;;4899246;29;20590;-67
2023/08/14 16:18:41;;;;;;;1.60;1.50;;;27.30;99.90;;;;;;4899613;29;20462;-67
2023/08/14 16:21:08;;;;;;;2.37;2.33;;;27.30;99.90;;;;;;4904181;29;20506;-67
2023/08/14 16:23:34;;;;;;;1.70;1.70;;;27.40;99.90;;;;;;4905372;29;20475;-67
2023/08/14 16:26:02;;;;;;;1.40;1.40;;;27.40;99.90;;;;;;4900825;29;20470;-67
2023/08/14 16:28:29;;;;;;;2.20;2.10;;;27.40;99.90;;;;;;4897838;29;20468;-67
2023/08/14 16:30:56;;;;;;;1.80;1.80;;;27.40;99.90;;;;;;4897994;29;20581;-67
2023/08/14 16:33:23;;;;;;;1.43;1.43;;;27.40;99.90;;;;;;4899845;29;20473;-67
2023/08/14 16:35:51;;;;;;;1.53;1.53;;;27.30;99.90;;;;;;4898328;29;20471;-67
2023/08/14 16:38:17;;;;;;;1.47;1.47;;;27.30;99.90;;;;;;4910012;29;20471;-67
2023/08/14 16:40:45;;;;;;;1.90;1.80;;;27.20;99.90;;;;;;4903184;29;20882;-67
2023/08/14 16:43:13;;;;;;;1.63;1.50;;;27.30;99.90;;;;;;4904158;29;20467;-68
2023/08/14 16:45:41;;;;;;;1.90;1.80;;;27.20;99.90;;;;;;4897957;29;20566;-68
2023/08/14 16:48:10;;;;;;;1.53;1.53;;;27.20;99.90;;;;;;4908928;29;20481;-68
2023/08/14 16:50:37;;;;;;;1.73;1.70;;;27.20;99.90;;;;;;4897530;29;21067;-68
2023/08/14 16:53:04;;;;;;;2.30;2.30;;;27.30;99.90;;;;;;4900658;29;20505;-68
2023/08/14 16:55:32;;;;;;;1.70;1.70;;;27.40;99.90;;;;;;4902701;29;20470;-68